sensor_id;sensor_type;location;lat;lon;timestamp;P1;durP1;ratioP1;P2;durP2;ratioP2
3415;SDS011;1721;51.238;9.562;2022-10-31T00:01:29;13.63;;;3.60;;
3415;SDS011;1721;51.238;9.562;2022-10-31T00:03:57;17.73;;;4.13;;
3415;SDS011;1721;51.238;9.562;2022-10-31T00:06:22;17.33;;;3.75;;
3415;SDS011;1721;51.238;9.562;2022-10-31T00:08:52;10.25;;;3.80;;
3415;SDS011;1721;51.238;9.562;2022-10-31T00:11:19;9.75;;;3.60;;
3415;SDS011;1721;51.238;9.562;2022-10-31T00:13:45;9.45;;;3.80;;
3415;SDS011;1721;51.238;9.562;2022-10-31T00:16:17;9.82;;;3.50;;
3415;SDS011;1721;51.238;9.562;2022-10-31T00:18:51;12.65;;;3.83;;
3415;SDS011;1721;51.238;9.562;2022-10-31T00:21:17;10.48;;;3.72;;
3415;SDS011;1721;51.238;9.562;2022-10-31T00:23:43;12.80;;;4.10;;
3415;SDS011;1721;51.238;9.562;2022-10-31T00:26:09;9.70;;;3.60;;
3415;SDS011;1721;51.238;9.562;2022-10-31T00:28:35;9.03;;;3.73;;
3415;SDS011;1721;51.238;9.562;2022-10-31T00:31:01;9.88;;;3.70;;
3415;SDS011;1721;51.238;9.562;2022-10-31T00:33:29;14.75;;;3.65;;
3415;SDS011;1721;51.238;9.562;2022-10-31T00:35:54;8.65;;;3.53;;
3415;SDS011;1721;51.238;9.562;2022-10-31T00:38:20;11.32;;;3.83;;
3415;SDS011;1721;51.238;9.562;2022-10-31T00:40:46;13.05;;;3.67;;
3415;SDS011;1721;51.238;9.562;2022-10-31T00:43:12;10.23;;;3.80;;
3415;SDS011;1721;51.238;9.562;2022-10-31T00:45:37;11.82;;;4.10;;
3415;SDS011;1721;51.238;9.562;2022-10-31T00:48:03;8.52;;;3.45;;
3415;SDS011;1721;51.238;9.562;2022-10-31T00:50:29;10.63;;;3.55;;
3415;SDS011;1721;51.238;9.562;2022-10-31T00:52:55;11.98;;;3.63;;
3415;SDS011;1721;51.238;9.562;2022-10-31T00:55:21;8.23;;;3.23;;
3415;SDS011;1721;51.238;9.562;2022-10-31T00:57:47;11.33;;;3.93;;
3415;SDS011;1721;51.238;9.562;2022-10-31T01:00:13;12.00;;;3.30;;
3415;SDS011;1721;51.238;9.562;2022-10-31T01:02:39;12.32;;;3.25;;
3415;SDS011;1721;51.238;9.562;2022-10-31T01:05:04;14.30;;;3.73;;
3415;SDS011;1721;51.238;9.562;2022-10-31T01:07:30;11.17;;;3.60;;
3415;SDS011;1721;51.238;9.562;2022-10-31T01:09:55;10.03;;;3.60;;
3415;SDS011;1721;51.238;9.562;2022-10-31T01:12:21;10.53;;;3.80;;
3415;SDS011;1721;51.238;9.562;2022-10-31T01:14:46;14.10;;;3.60;;
3415;SDS011;1721;51.238;9.562;2022-10-31T01:17:12;11.30;;;4.10;;
3415;SDS011;1721;51.238;9.562;2022-10-31T01:19:38;8.30;;;3.47;;
3415;SDS011;1721;51.238;9.562;2022-10-31T01:22:04;10.25;;;3.63;;
3415;SDS011;1721;51.238;9.562;2022-10-31T01:24:30;11.50;;;3.80;;
3415;SDS011;1721;51.238;9.562;2022-10-31T01:26:56;10.10;;;3.60;;
3415;SDS011;1721;51.238;9.562;2022-10-31T01:29:21;10.23;;;3.33;;
3415;SDS011;1721;51.238;9.562;2022-10-31T01:31:47;12.80;;;3.60;;
3415;SDS011;1721;51.238;9.562;2022-10-31T01:34:14;10.50;;;4.37;;
3415;SDS011;1721;51.238;9.562;2022-10-31T01:36:41;9.48;;;4.05;;
3415;SDS011;1721;51.238;9.562;2022-10-31T01:39:11;10.57;;;3.75;;
3415;SDS011;1721;51.238;9.562;2022-10-31T01:41:40;8.60;;;3.95;;
3415;SDS011;1721;51.238;9.562;2022-10-31T01:46:40;12.48;;;3.70;;
3415;SDS011;1721;51.238;9.562;2022-10-31T01:49:09;7.95;;;3.25;;
3415;SDS011;1721;51.238;9.562;2022-10-31T01:51:44;15.85;;;3.50;;
3415;SDS011;1721;51.238;9.562;2022-10-31T01:54:15;13.10;;;3.50;;
3415;SDS011;1721;51.238;9.562;2022-10-31T01:56:47;14.57;;;3.33;;
3415;SDS011;1721;51.238;9.562;2022-10-31T01:59:16;12.43;;;3.40;;
3415;SDS011;1721;51.238;9.562;2022-10-31T02:01:44;11.10;;;3.67;;
3415;SDS011;1721;51.238;9.562;2022-10-31T02:04:11;9.57;;;3.55;;
3415;SDS011;1721;51.238;9.562;2022-10-31T02:06:38;10.60;;;3.80;;
3415;SDS011;1721;51.238;9.562;2022-10-31T02:09:09;11.15;;;3.22;;
3415;SDS011;1721;51.238;9.562;2022-10-31T02:11:37;10.23;;;4.00;;
3415;SDS011;1721;51.238;9.562;2022-10-31T02:14:03;10.10;;;3.97;;
3415;SDS011;1721;51.238;9.562;2022-10-31T02:16:29;13.52;;;3.35;;
3415;SDS011;1721;51.238;9.562;2022-10-31T02:18:54;14.37;;;3.50;;
3415;SDS011;1721;51.238;9.562;2022-10-31T02:24:08;11.63;;;3.50;;
3415;SDS011;1721;51.238;9.562;2022-10-31T02:27:10;10.90;;;3.40;;
3415;SDS011;1721;51.238;9.562;2022-10-31T02:40:46;9.87;;;3.50;;
3415;SDS011;1721;51.238;9.562;2022-10-31T02:43:43;9.48;;;3.45;;
3415;SDS011;1721;51.238;9.562;2022-10-31T02:46:22;11.52;;;3.90;;
3415;SDS011;1721;51.238;9.562;2022-10-31T02:48:49;10.90;;;4.00;;
3415;SDS011;1721;51.238;9.562;2022-10-31T02:51:18;14.60;;;4.68;;
3415;SDS011;1721;51.238;9.562;2022-10-31T02:53:44;13.63;;;4.43;;
3415;SDS011;1721;51.238;9.562;2022-10-31T02:56:16;16.20;;;4.30;;
3415;SDS011;1721;51.238;9.562;2022-10-31T02:58:49;16.98;;;4.60;;
3415;SDS011;1721;51.238;9.562;2022-10-31T03:01:30;8.90;;;4.10;;
3415;SDS011;1721;51.238;9.562;2022-10-31T03:04:22;9.98;;;3.58;;
3415;SDS011;1721;51.238;9.562;2022-10-31T03:07:00;8.57;;;3.33;;
3415;SDS011;1721;51.238;9.562;2022-10-31T03:09:46;14.18;;;3.30;;
3415;SDS011;1721;51.238;9.562;2022-10-31T03:12:21;15.97;;;3.90;;
3415;SDS011;1721;51.238;9.562;2022-10-31T03:14:56;10.43;;;3.50;;
3415;SDS011;1721;51.238;9.562;2022-10-31T03:17:39;13.85;;;3.60;;
3415;SDS011;1721;51.238;9.562;2022-10-31T03:20:32;9.32;;;3.67;;
3415;SDS011;1721;51.238;9.562;2022-10-31T03:23:04;13.93;;;4.13;;
3415;SDS011;1721;51.238;9.562;2022-10-31T03:25:35;11.38;;;4.00;;
3415;SDS011;1721;51.238;9.562;2022-10-31T03:28:02;12.23;;;3.47;;
3415;SDS011;1721;51.238;9.562;2022-10-31T03:30:30;18.70;;;3.92;;
3415;SDS011;1721;51.238;9.562;2022-10-31T03:32:59;9.80;;;4.00;;
3415;SDS011;1721;51.238;9.562;2022-10-31T03:35:26;13.38;;;3.80;;
3415;SDS011;1721;51.238;9.562;2022-10-31T03:37:53;13.85;;;3.55;;
3415;SDS011;1721;51.238;9.562;2022-10-31T03:40:20;10.43;;;3.47;;
3415;SDS011;1721;51.238;9.562;2022-10-31T03:42:51;10.05;;;3.95;;
3415;SDS011;1721;51.238;9.562;2022-10-31T03:45:23;16.40;;;4.20;;
3415;SDS011;1721;51.238;9.562;2022-10-31T03:47:51;23.02;;;4.00;;
3415;SDS011;1721;51.238;9.562;2022-10-31T03:50:18;10.25;;;3.80;;
3415;SDS011;1721;51.238;9.562;2022-10-31T03:52:46;11.65;;;3.83;;
3415;SDS011;1721;51.238;9.562;2022-10-31T03:55:34;12.45;;;3.90;;
3415;SDS011;1721;51.238;9.562;2022-10-31T03:58:25;11.20;;;4.13;;
3415;SDS011;1721;51.238;9.562;2022-10-31T04:00:57;11.13;;;4.00;;
3415;SDS011;1721;51.238;9.562;2022-10-31T04:03:27;9.80;;;3.67;;
3415;SDS011;1721;51.238;9.562;2022-10-31T04:05:56;8.63;;;3.40;;
3415;SDS011;1721;51.238;9.562;2022-10-31T04:08:27;11.05;;;4.35;;
3415;SDS011;1721;51.238;9.562;2022-10-31T04:10:56;11.35;;;3.78;;
3415;SDS011;1721;51.238;9.562;2022-10-31T04:13:25;13.32;;;3.67;;
3415;SDS011;1721;51.238;9.562;2022-10-31T04:15:54;12.60;;;4.00;;
3415;SDS011;1721;51.238;9.562;2022-10-31T04:18:21;18.40;;;4.77;;
3415;SDS011;1721;51.238;9.562;2022-10-31T04:20:48;12.32;;;4.30;;
3415;SDS011;1721;51.238;9.562;2022-10-31T04:23:22;19.63;;;5.07;;
3415;SDS011;1721;51.238;9.562;2022-10-31T04:25:49;10.35;;;4.20;;
3415;SDS011;1721;51.238;9.562;2022-10-31T04:28:15;10.50;;;3.97;;
3415;SDS011;1721;51.238;9.562;2022-10-31T04:30:40;18.43;;;4.63;;
3415;SDS011;1721;51.238;9.562;2022-10-31T04:33:06;10.27;;;4.30;;
3415;SDS011;1721;51.238;9.562;2022-10-31T04:35:31;14.97;;;4.40;;
3415;SDS011;1721;51.238;9.562;2022-10-31T04:37:57;16.47;;;3.90;;
3415;SDS011;1721;51.238;9.562;2022-10-31T04:40:22;11.37;;;4.13;;
3415;SDS011;1721;51.238;9.562;2022-10-31T04:42:48;13.77;;;4.00;;
3415;SDS011;1721;51.238;9.562;2022-10-31T04:45:14;10.33;;;4.20;;
3415;SDS011;1721;51.238;9.562;2022-10-31T04:47:39;12.52;;;4.38;;
3415;SDS011;1721;51.238;9.562;2022-10-31T04:50:05;13.90;;;4.35;;
3415;SDS011;1721;51.238;9.562;2022-10-31T04:52:30;12.85;;;5.00;;
3415;SDS011;1721;51.238;9.562;2022-10-31T04:54:56;15.13;;;5.13;;
3415;SDS011;1721;51.238;9.562;2022-10-31T04:57:21;15.65;;;5.45;;
3415;SDS011;1721;51.238;9.562;2022-10-31T04:59:47;21.35;;;4.97;;
3415;SDS011;1721;51.238;9.562;2022-10-31T05:02:12;15.45;;;5.40;;
3415;SDS011;1721;51.238;9.562;2022-10-31T05:04:38;18.45;;;4.70;;
3415;SDS011;1721;51.238;9.562;2022-10-31T05:07:03;12.05;;;4.32;;
3415;SDS011;1721;51.238;9.562;2022-10-31T05:09:29;15.85;;;4.22;;
3415;SDS011;1721;51.238;9.562;2022-10-31T05:11:55;18.20;;;4.60;;
3415;SDS011;1721;51.238;9.562;2022-10-31T05:14:20;17.30;;;5.30;;
3415;SDS011;1721;51.238;9.562;2022-10-31T05:16:46;17.93;;;5.10;;
3415;SDS011;1721;51.238;9.562;2022-10-31T05:19:11;17.57;;;5.70;;
3415;SDS011;1721;51.238;9.562;2022-10-31T05:21:37;15.67;;;5.47;;
3415;SDS011;1721;51.238;9.562;2022-10-31T05:24:02;14.80;;;5.77;;
3415;SDS011;1721;51.238;9.562;2022-10-31T05:26:28;16.60;;;5.70;;
3415;SDS011;1721;51.238;9.562;2022-10-31T05:28:54;17.83;;;5.28;;
3415;SDS011;1721;51.238;9.562;2022-10-31T05:31:19;15.13;;;5.45;;
3415;SDS011;1721;51.238;9.562;2022-10-31T05:33:45;13.60;;;5.30;;
3415;SDS011;1721;51.238;9.562;2022-10-31T05:36:10;23.45;;;5.93;;
3415;SDS011;1721;51.238;9.562;2022-10-31T05:38:36;17.23;;;6.13;;
3415;SDS011;1721;51.238;9.562;2022-10-31T05:41:01;19.45;;;6.10;;
3415;SDS011;1721;51.238;9.562;2022-10-31T05:43:27;20.10;;;6.20;;
3415;SDS011;1721;51.238;9.562;2022-10-31T05:45:54;20.70;;;6.07;;
3415;SDS011;1721;51.238;9.562;2022-10-31T05:48:21;17.67;;;6.80;;
3415;SDS011;1721;51.238;9.562;2022-10-31T05:50:47;17.40;;;6.38;;
3415;SDS011;1721;51.238;9.562;2022-10-31T05:53:13;22.60;;;6.65;;
3415;SDS011;1721;51.238;9.562;2022-10-31T05:55:39;24.27;;;7.05;;
3415;SDS011;1721;51.238;9.562;2022-10-31T05:58:08;15.77;;;6.35;;
3415;SDS011;1721;51.238;9.562;2022-10-31T06:00:34;16.77;;;6.30;;
3415;SDS011;1721;51.238;9.562;2022-10-31T06:03:01;21.33;;;6.60;;
3415;SDS011;1721;51.238;9.562;2022-10-31T06:05:30;16.95;;;6.40;;
3415;SDS011;1721;51.238;9.562;2022-10-31T06:07:56;17.08;;;5.97;;
3415;SDS011;1721;51.238;9.562;2022-10-31T06:10:22;21.50;;;6.50;;
3415;SDS011;1721;51.238;9.562;2022-10-31T06:12:48;18.83;;;6.87;;
3415;SDS011;1721;51.238;9.562;2022-10-31T06:15:13;17.77;;;5.88;;
3415;SDS011;1721;51.238;9.562;2022-10-31T06:17:39;17.60;;;6.15;;
3415;SDS011;1721;51.238;9.562;2022-10-31T06:20:05;18.73;;;6.47;;
3415;SDS011;1721;51.238;9.562;2022-10-31T06:22:31;17.13;;;5.63;;
3415;SDS011;1721;51.238;9.562;2022-10-31T06:24:56;21.92;;;6.05;;
3415;SDS011;1721;51.238;9.562;2022-10-31T06:27:22;15.98;;;5.22;;
3415;SDS011;1721;51.238;9.562;2022-10-31T06:29:48;17.55;;;6.55;;
3415;SDS011;1721;51.238;9.562;2022-10-31T06:32:14;14.15;;;6.45;;
3415;SDS011;1721;51.238;9.562;2022-10-31T06:34:40;17.27;;;6.70;;
3415;SDS011;1721;51.238;9.562;2022-10-31T06:37:06;22.27;;;6.95;;
3415;SDS011;1721;51.238;9.562;2022-10-31T06:39:33;24.67;;;7.65;;
3415;SDS011;1721;51.238;9.562;2022-10-31T06:41:59;30.52;;;8.73;;
3415;SDS011;1721;51.238;9.562;2022-10-31T06:44:24;21.60;;;8.10;;
3415;SDS011;1721;51.238;9.562;2022-10-31T06:46:50;23.87;;;8.40;;
3415;SDS011;1721;51.238;9.562;2022-10-31T06:49:15;27.53;;;9.23;;
3415;SDS011;1721;51.238;9.562;2022-10-31T06:51:41;26.00;;;8.50;;
3415;SDS011;1721;51.238;9.562;2022-10-31T06:54:07;24.20;;;7.82;;
3415;SDS011;1721;51.238;9.562;2022-10-31T06:56:33;23.50;;;7.93;;
3415;SDS011;1721;51.238;9.562;2022-10-31T06:58:58;23.80;;;8.70;;
3415;SDS011;1721;51.238;9.562;2022-10-31T07:01:24;27.43;;;8.90;;
3415;SDS011;1721;51.238;9.562;2022-10-31T07:03:49;23.83;;;8.43;;
3415;SDS011;1721;51.238;9.562;2022-10-31T07:06:15;22.83;;;7.30;;
3415;SDS011;1721;51.238;9.562;2022-10-31T07:08:40;26.93;;;8.50;;
3415;SDS011;1721;51.238;9.562;2022-10-31T07:11:06;24.45;;;8.30;;
3415;SDS011;1721;51.238;9.562;2022-10-31T07:13:32;27.67;;;8.82;;
3415;SDS011;1721;51.238;9.562;2022-10-31T07:16:01;26.35;;;8.70;;
3415;SDS011;1721;51.238;9.562;2022-10-31T07:18:28;29.05;;;9.20;;
3415;SDS011;1721;51.238;9.562;2022-10-31T07:20:54;22.30;;;8.77;;
3415;SDS011;1721;51.238;9.562;2022-10-31T07:23:20;22.98;;;8.20;;
3415;SDS011;1721;51.238;9.562;2022-10-31T07:25:46;23.90;;;9.20;;
3415;SDS011;1721;51.238;9.562;2022-10-31T07:28:11;23.30;;;8.90;;
3415;SDS011;1721;51.238;9.562;2022-10-31T07:30:37;26.53;;;8.97;;
3415;SDS011;1721;51.238;9.562;2022-10-31T07:33:03;24.30;;;8.43;;
3415;SDS011;1721;51.238;9.562;2022-10-31T07:35:29;28.80;;;8.95;;
3415;SDS011;1721;51.238;9.562;2022-10-31T07:37:55;25.52;;;9.70;;
3415;SDS011;1721;51.238;9.562;2022-10-31T07:40:21;33.25;;;10.80;;
3415;SDS011;1721;51.238;9.562;2022-10-31T07:42:49;27.02;;;9.70;;
3415;SDS011;1721;51.238;9.562;2022-10-31T07:45:16;28.75;;;9.68;;
3415;SDS011;1721;51.238;9.562;2022-10-31T07:47:45;30.88;;;11.02;;
3415;SDS011;1721;51.238;9.562;2022-10-31T07:50:13;29.58;;;10.38;;
3415;SDS011;1721;51.238;9.562;2022-10-31T07:52:43;35.30;;;10.10;;
3415;SDS011;1721;51.238;9.562;2022-10-31T07:55:09;37.90;;;9.50;;
3415;SDS011;1721;51.238;9.562;2022-10-31T07:57:34;27.83;;;9.38;;
3415;SDS011;1721;51.238;9.562;2022-10-31T08:00:02;30.17;;;9.98;;
3415;SDS011;1721;51.238;9.562;2022-10-31T08:02:29;26.98;;;9.93;;
3415;SDS011;1721;51.238;9.562;2022-10-31T08:04:54;35.45;;;10.43;;
3415;SDS011;1721;51.238;9.562;2022-10-31T08:07:20;25.02;;;10.25;;
3415;SDS011;1721;51.238;9.562;2022-10-31T08:09:45;27.83;;;10.00;;
3415;SDS011;1721;51.238;9.562;2022-10-31T08:12:11;23.08;;;8.43;;
3415;SDS011;1721;51.238;9.562;2022-10-31T08:14:36;27.77;;;8.73;;
3415;SDS011;1721;51.238;9.562;2022-10-31T08:17:02;27.95;;;9.15;;
3415;SDS011;1721;51.238;9.562;2022-10-31T08:19:27;32.47;;;10.50;;
3415;SDS011;1721;51.238;9.562;2022-10-31T08:21:53;28.33;;;10.10;;
3415;SDS011;1721;51.238;9.562;2022-10-31T08:24:23;21.55;;;8.77;;
3415;SDS011;1721;51.238;9.562;2022-10-31T08:26:49;21.30;;;8.90;;
3415;SDS011;1721;51.238;9.562;2022-10-31T08:29:14;27.43;;;9.33;;
3415;SDS011;1721;51.238;9.562;2022-10-31T08:31:40;21.88;;;8.30;;
3415;SDS011;1721;51.238;9.562;2022-10-31T08:34:06;19.85;;;6.90;;
3415;SDS011;1721;51.238;9.562;2022-10-31T08:36:32;19.42;;;6.90;;
3415;SDS011;1721;51.238;9.562;2022-10-31T08:38:58;14.52;;;6.20;;
3415;SDS011;1721;51.238;9.562;2022-10-31T08:41:23;17.47;;;6.33;;
3415;SDS011;1721;51.238;9.562;2022-10-31T08:43:49;19.50;;;6.53;;
3415;SDS011;1721;51.238;9.562;2022-10-31T08:46:15;16.70;;;6.60;;
3415;SDS011;1721;51.238;9.562;2022-10-31T08:48:41;14.68;;;5.78;;
3415;SDS011;1721;51.238;9.562;2022-10-31T08:51:07;18.40;;;6.60;;
3415;SDS011;1721;51.238;9.562;2022-10-31T08:53:34;16.50;;;6.90;;
3415;SDS011;1721;51.238;9.562;2022-10-31T08:55:59;15.25;;;6.57;;
3415;SDS011;1721;51.238;9.562;2022-10-31T08:58:25;25.05;;;6.15;;
3415;SDS011;1721;51.238;9.562;2022-10-31T09:00:52;19.52;;;6.60;;
3415;SDS011;1721;51.238;9.562;2022-10-31T09:03:23;21.17;;;6.70;;
3415;SDS011;1721;51.238;9.562;2022-10-31T09:05:50;16.58;;;6.97;;
3415;SDS011;1721;51.238;9.562;2022-10-31T09:08:20;20.08;;;6.50;;
3415;SDS011;1721;51.238;9.562;2022-10-31T09:10:46;19.00;;;6.87;;
3415;SDS011;1721;51.238;9.562;2022-10-31T09:13:12;16.43;;;6.90;;
3415;SDS011;1721;51.238;9.562;2022-10-31T09:15:41;16.67;;;7.40;;
3415;SDS011;1721;51.238;9.562;2022-10-31T09:18:08;19.67;;;6.80;;
3415;SDS011;1721;51.238;9.562;2022-10-31T09:20:35;22.67;;;6.78;;
3415;SDS011;1721;51.238;9.562;2022-10-31T09:23:06;19.38;;;7.03;;
3415;SDS011;1721;51.238;9.562;2022-10-31T09:25:34;20.70;;;8.00;;
3415;SDS011;1721;51.238;9.562;2022-10-31T09:28:00;19.98;;;7.70;;
3415;SDS011;1721;51.238;9.562;2022-10-31T09:30:28;18.42;;;7.20;;
3415;SDS011;1721;51.238;9.562;2022-10-31T09:32:58;20.90;;;7.22;;
3415;SDS011;1721;51.238;9.562;2022-10-31T09:35:25;17.23;;;7.10;;
3415;SDS011;1721;51.238;9.562;2022-10-31T09:37:57;16.88;;;6.60;;
3415;SDS011;1721;51.238;9.562;2022-10-31T09:40:27;17.85;;;7.00;;
3415;SDS011;1721;51.238;9.562;2022-10-31T09:51:04;21.67;;;6.25;;
3415;SDS011;1721;51.238;9.562;2022-10-31T09:53:40;18.88;;;6.63;;
3415;SDS011;1721;51.238;9.562;2022-10-31T09:56:13;25.42;;;6.90;;
3415;SDS011;1721;51.238;9.562;2022-10-31T09:58:43;17.00;;;6.88;;
3415;SDS011;1721;51.238;9.562;2022-10-31T10:01:19;18.92;;;7.30;;
3415;SDS011;1721;51.238;9.562;2022-10-31T10:07:12;18.60;;;7.00;;
3415;SDS011;1721;51.238;9.562;2022-10-31T10:10:01;20.35;;;7.93;;
3415;SDS011;1721;51.238;9.562;2022-10-31T10:18:11;20.20;;;7.30;;
3415;SDS011;1721;51.238;9.562;2022-10-31T10:21:34;16.10;;;7.25;;
3415;SDS011;1721;51.238;9.562;2022-10-31T10:32:42;19.45;;;8.02;;
3415;SDS011;1721;51.238;9.562;2022-10-31T10:35:24;20.88;;;7.75;;
3415;SDS011;1721;51.238;9.562;2022-10-31T10:40:52;26.80;;;8.15;;
3415;SDS011;1721;51.238;9.562;2022-10-31T10:49:11;18.05;;;7.80;;
3415;SDS011;1721;51.238;9.562;2022-10-31T10:51:37;18.45;;;7.75;;
3415;SDS011;1721;51.238;9.562;2022-10-31T10:54:12;21.52;;;8.10;;
3415;SDS011;1721;51.238;9.562;2022-10-31T10:56:51;20.08;;;7.72;;
3415;SDS011;1721;51.238;9.562;2022-10-31T10:59:23;22.58;;;7.75;;
3415;SDS011;1721;51.238;9.562;2022-10-31T11:01:49;25.67;;;7.70;;
3415;SDS011;1721;51.238;9.562;2022-10-31T11:04:28;21.80;;;7.97;;
3415;SDS011;1721;51.238;9.562;2022-10-31T11:09:32;20.17;;;8.00;;
3415;SDS011;1721;51.238;9.562;2022-10-31T11:11:58;22.13;;;8.30;;
3415;SDS011;1721;51.238;9.562;2022-10-31T11:14:30;23.95;;;8.25;;
3415;SDS011;1721;51.238;9.562;2022-10-31T11:22:36;24.85;;;8.60;;
3415;SDS011;1721;51.238;9.562;2022-10-31T11:25:16;27.98;;;9.80;;
3415;SDS011;1721;51.238;9.562;2022-10-31T11:28:02;24.25;;;8.90;;
3415;SDS011;1721;51.238;9.562;2022-10-31T11:30:29;25.75;;;8.73;;
3415;SDS011;1721;51.238;9.562;2022-10-31T11:33:00;23.15;;;9.02;;
3415;SDS011;1721;51.238;9.562;2022-10-31T11:35:26;28.95;;;9.90;;
3415;SDS011;1721;51.238;9.562;2022-10-31T11:37:52;27.50;;;9.45;;
3415;SDS011;1721;51.238;9.562;2022-10-31T11:40:24;29.27;;;9.60;;
3415;SDS011;1721;51.238;9.562;2022-10-31T11:42:51;20.75;;;8.50;;
3415;SDS011;1721;51.238;9.562;2022-10-31T11:47:49;23.83;;;9.50;;
3415;SDS011;1721;51.238;9.562;2022-10-31T11:50:19;31.75;;;10.23;;
3415;SDS011;1721;51.238;9.562;2022-10-31T11:53:00;26.30;;;9.40;;
3415;SDS011;1721;51.238;9.562;2022-10-31T11:55:37;27.60;;;10.10;;
3415;SDS011;1721;51.238;9.562;2022-10-31T11:58:04;27.35;;;10.02;;
3415;SDS011;1721;51.238;9.562;2022-10-31T12:00:49;26.63;;;9.70;;
3415;SDS011;1721;51.238;9.562;2022-10-31T12:05:53;27.53;;;9.87;;
3415;SDS011;1721;51.238;9.562;2022-10-31T12:08:35;25.92;;;9.88;;
3415;SDS011;1721;51.238;9.562;2022-10-31T12:16:34;31.38;;;10.30;;
3415;SDS011;1721;51.238;9.562;2022-10-31T12:25:28;26.90;;;9.40;;
3415;SDS011;1721;51.238;9.562;2022-10-31T12:28:28;30.13;;;9.63;;
3415;SDS011;1721;51.238;9.562;2022-10-31T12:33:53;23.57;;;9.00;;
3415;SDS011;1721;51.238;9.562;2022-10-31T12:39:15;29.95;;;10.10;;
3415;SDS011;1721;51.238;9.562;2022-10-31T12:55:55;26.55;;;9.80;;
3415;SDS011;1721;51.238;9.562;2022-10-31T13:01:06;32.13;;;10.45;;
3415;SDS011;1721;51.238;9.562;2022-10-31T13:06:37;27.00;;;10.38;;
3415;SDS011;1721;51.238;9.562;2022-10-31T13:09:08;25.65;;;10.35;;
3415;SDS011;1721;51.238;9.562;2022-10-31T13:11:40;27.27;;;10.55;;
3415;SDS011;1721;51.238;9.562;2022-10-31T13:14:11;29.25;;;10.50;;
3415;SDS011;1721;51.238;9.562;2022-10-31T13:16:47;24.27;;;9.27;;
3415;SDS011;1721;51.238;9.562;2022-10-31T13:19:27;36.25;;;10.05;;
3415;SDS011;1721;51.238;9.562;2022-10-31T13:22:08;26.83;;;10.40;;
3415;SDS011;1721;51.238;9.562;2022-10-31T13:24:55;26.50;;;10.50;;
3415;SDS011;1721;51.238;9.562;2022-10-31T13:27:28;28.23;;;10.52;;
3415;SDS011;1721;51.238;9.562;2022-10-31T13:30:03;30.02;;;10.40;;
3415;SDS011;1721;51.238;9.562;2022-10-31T13:38:21;27.83;;;10.10;;
3415;SDS011;1721;51.238;9.562;2022-10-31T13:41:11;33.80;;;10.10;;
3415;SDS011;1721;51.238;9.562;2022-10-31T13:51:49;26.77;;;9.60;;
3415;SDS011;1721;51.238;9.562;2022-10-31T13:54:33;24.25;;;10.00;;
3415;SDS011;1721;51.238;9.562;2022-10-31T13:56:59;27.97;;;9.50;;
3415;SDS011;1721;51.238;9.562;2022-10-31T13:59:26;27.17;;;9.98;;
3415;SDS011;1721;51.238;9.562;2022-10-31T14:01:56;21.88;;;8.80;;
3415;SDS011;1721;51.238;9.562;2022-10-31T14:04:47;23.98;;;9.90;;
3415;SDS011;1721;51.238;9.562;2022-10-31T14:07:21;26.70;;;8.88;;
3415;SDS011;1721;51.238;9.562;2022-10-31T14:15:11;29.77;;;9.95;;
3415;SDS011;1721;51.238;9.562;2022-10-31T14:17:56;27.60;;;9.70;;
3415;SDS011;1721;51.238;9.562;2022-10-31T14:28:43;24.17;;;8.73;;
3415;SDS011;1721;51.238;9.562;2022-10-31T14:34:14;27.10;;;10.05;;
3415;SDS011;1721;51.238;9.562;2022-10-31T14:42:02;24.75;;;7.93;;
3415;SDS011;1721;51.238;9.562;2022-10-31T14:47:36;22.45;;;7.38;;
3415;SDS011;1721;51.238;9.562;2022-10-31T14:50:20;19.65;;;7.65;;
3415;SDS011;1721;51.238;9.562;2022-10-31T14:52:50;21.60;;;7.40;;
3415;SDS011;1721;51.238;9.562;2022-10-31T14:55:18;24.23;;;7.30;;
3415;SDS011;1721;51.238;9.562;2022-10-31T14:57:49;19.25;;;7.28;;
3415;SDS011;1721;51.238;9.562;2022-10-31T15:00:20;18.02;;;6.93;;
3415;SDS011;1721;51.238;9.562;2022-10-31T15:05:13;18.63;;;6.33;;
3415;SDS011;1721;51.238;9.562;2022-10-31T15:07:56;18.60;;;5.90;;
3415;SDS011;1721;51.238;9.562;2022-10-31T15:10:24;15.02;;;5.28;;
3415;SDS011;1721;51.238;9.562;2022-10-31T15:13:10;13.52;;;4.90;;
3415;SDS011;1721;51.238;9.562;2022-10-31T15:15:43;14.13;;;5.40;;
3415;SDS011;1721;51.238;9.562;2022-10-31T15:18:16;13.02;;;4.68;;
3415;SDS011;1721;51.238;9.562;2022-10-31T15:20:45;18.00;;;5.80;;
3415;SDS011;1721;51.238;9.562;2022-10-31T15:23:15;15.55;;;5.00;;
3415;SDS011;1721;51.238;9.562;2022-10-31T15:25:49;18.60;;;5.60;;
3415;SDS011;1721;51.238;9.562;2022-10-31T15:28:20;17.95;;;5.75;;
3415;SDS011;1721;51.238;9.562;2022-10-31T15:30:55;17.88;;;5.50;;
3415;SDS011;1721;51.238;9.562;2022-10-31T15:33:23;15.35;;;5.18;;
3415;SDS011;1721;51.238;9.562;2022-10-31T15:35:55;15.02;;;5.85;;
3415;SDS011;1721;51.238;9.562;2022-10-31T15:38:25;53.60;;;13.00;;
3415;SDS011;1721;51.238;9.562;2022-10-31T15:43:31;27.80;;;7.78;;
3415;SDS011;1721;51.238;9.562;2022-10-31T15:46:01;44.00;;;11.48;;
3415;SDS011;1721;51.238;9.562;2022-10-31T15:48:27;23.15;;;7.30;;
3415;SDS011;1721;51.238;9.562;2022-10-31T15:50:56;23.20;;;7.20;;
3415;SDS011;1721;51.238;9.562;2022-10-31T15:53:33;21.25;;;5.75;;
3415;SDS011;1721;51.238;9.562;2022-10-31T15:56:07;17.63;;;5.80;;
3415;SDS011;1721;51.238;9.562;2022-10-31T15:58:44;20.98;;;5.82;;
3415;SDS011;1721;51.238;9.562;2022-10-31T16:01:20;18.60;;;5.78;;
3415;SDS011;1721;51.238;9.562;2022-10-31T16:03:56;20.60;;;5.70;;
3415;SDS011;1721;51.238;9.562;2022-10-31T16:06:23;16.83;;;5.82;;
3415;SDS011;1721;51.238;9.562;2022-10-31T16:08:48;21.73;;;5.40;;
3415;SDS011;1721;51.238;9.562;2022-10-31T16:11:22;31.67;;;7.87;;
3415;SDS011;1721;51.238;9.562;2022-10-31T16:14:03;22.50;;;6.93;;
3415;SDS011;1721;51.238;9.562;2022-10-31T16:16:32;24.75;;;6.57;;
3415;SDS011;1721;51.238;9.562;2022-10-31T16:19:05;16.02;;;5.45;;
3415;SDS011;1721;51.238;9.562;2022-10-31T16:21:39;15.57;;;5.28;;
3415;SDS011;1721;51.238;9.562;2022-10-31T16:24:17;13.55;;;5.35;;
3415;SDS011;1721;51.238;9.562;2022-10-31T16:26:54;16.95;;;5.43;;
3415;SDS011;1721;51.238;9.562;2022-10-31T16:29:32;17.40;;;6.03;;
3415;SDS011;1721;51.238;9.562;2022-10-31T16:32:00;23.88;;;5.82;;
3415;SDS011;1721;51.238;9.562;2022-10-31T16:34:26;17.45;;;5.80;;
3415;SDS011;1721;51.238;9.562;2022-10-31T16:36:52;18.27;;;5.35;;
3415;SDS011;1721;51.238;9.562;2022-10-31T16:39:18;13.67;;;5.20;;
3415;SDS011;1721;51.238;9.562;2022-10-31T16:41:48;16.55;;;5.55;;
3415;SDS011;1721;51.238;9.562;2022-10-31T16:44:19;14.60;;;4.53;;
3415;SDS011;1721;51.238;9.562;2022-10-31T16:46:50;18.27;;;6.10;;
3415;SDS011;1721;51.238;9.562;2022-10-31T16:49:32;13.32;;;5.25;;
3415;SDS011;1721;51.238;9.562;2022-10-31T16:51:58;13.37;;;5.10;;
3415;SDS011;1721;51.238;9.562;2022-10-31T16:54:23;16.80;;;5.27;;
3415;SDS011;1721;51.238;9.562;2022-10-31T16:56:49;15.70;;;5.60;;
3415;SDS011;1721;51.238;9.562;2022-10-31T16:59:14;17.93;;;5.97;;
3415;SDS011;1721;51.238;9.562;2022-10-31T17:01:40;16.73;;;5.57;;
3415;SDS011;1721;51.238;9.562;2022-10-31T17:04:13;13.63;;;5.00;;
3415;SDS011;1721;51.238;9.562;2022-10-31T17:06:39;15.60;;;4.55;;
3415;SDS011;1721;51.238;9.562;2022-10-31T17:09:05;14.63;;;5.40;;
3415;SDS011;1721;51.238;9.562;2022-10-31T17:11:31;13.25;;;4.78;;
3415;SDS011;1721;51.238;9.562;2022-10-31T17:13:56;13.40;;;4.82;;
3415;SDS011;1721;51.238;9.562;2022-10-31T17:16:22;17.47;;;4.77;;
3415;SDS011;1721;51.238;9.562;2022-10-31T17:18:48;13.17;;;4.60;;
3415;SDS011;1721;51.238;9.562;2022-10-31T17:21:15;13.60;;;4.50;;
3415;SDS011;1721;51.238;9.562;2022-10-31T17:23:43;20.98;;;5.15;;
3415;SDS011;1721;51.238;9.562;2022-10-31T17:26:09;17.17;;;5.10;;
3415;SDS011;1721;51.238;9.562;2022-10-31T17:28:35;15.68;;;5.05;;
3415;SDS011;1721;51.238;9.562;2022-10-31T17:31:00;14.40;;;4.40;;
3415;SDS011;1721;51.238;9.562;2022-10-31T17:33:26;14.13;;;4.60;;
3415;SDS011;1721;51.238;9.562;2022-10-31T17:35:52;18.77;;;4.90;;
3415;SDS011;1721;51.238;9.562;2022-10-31T17:38:18;17.02;;;4.93;;
3415;SDS011;1721;51.238;9.562;2022-10-31T17:40:43;13.90;;;4.45;;